createdAt,value
2023-04-03T00:02:34.239Z,36.09
2023-04-03T00:08:36.839Z,36.18
2023-04-03T00:14:34.500Z,36.29
2023-04-03T00:20:44.046Z,36.45
2023-04-03T00:23:20.352Z,36.47
2023-04-03T00:26:06.180Z,36.51
2023-04-03T00:32:29.393Z,37.28
2023-04-03T00:35:16.360Z,37.37
2023-04-03T00:42:17.562Z,37.21
2023-04-03T00:44:44.909Z,37.17
2023-04-03T00:47:44.775Z,37.08
2023-04-03T00:50:39.489Z,37.22
2023-04-03T00:56:34.370Z,37.23
2023-04-03T00:59:43.598Z,37.17
2023-04-03T01:08:36.694Z,37.15
2023-04-03T01:11:11.135Z,37.23
2023-04-03T01:14:10.283Z,37.19
2023-04-03T01:17:21.448Z,37.16
2023-04-03T01:20:47.259Z,37.14
2023-04-03T01:23:49.159Z,37.17
2023-04-03T01:26:25.630Z,37.14
2023-04-03T01:32:19.224Z,37.20
2023-04-03T01:34:56.070Z,37.20
2023-04-03T01:37:26.411Z,37.20
2023-04-03T01:39:58.565Z,37.21
2023-04-03T01:42:30.831Z,37.12
2023-04-03T01:45:02.822Z,37.18
2023-04-03T01:47:33.595Z,37.14
2023-04-03T01:53:34.072Z,37.12
2023-04-03T01:56:40.996Z,37.10
2023-04-03T02:00:25.368Z,36.88
2023-04-03T02:02:55.408Z,36.82
2023-04-03T02:08:54.372Z,36.73
2023-04-03T02:14:39.284Z,36.71
2023-04-03T02:17:37.481Z,36.75
2023-04-03T02:27:02.537Z,36.72
2023-04-03T02:29:44.076Z,36.79
2023-04-03T02:32:43.505Z,36.77
2023-04-03T02:35:33.562Z,36.84
2023-04-03T02:38:51.306Z,36.83
2023-04-03T02:41:46.061Z,36.84
2023-04-03T02:44:35.107Z,36.90
2023-04-03T02:50:34.346Z,36.92
2023-04-03T02:53:18.904Z,36.99
2023-04-03T02:56:24.052Z,37.05
2023-04-03T02:59:25.656Z,37.08
2023-04-03T03:12:22.536Z,37.14
2023-04-03T03:14:54.650Z,37.11
2023-04-03T03:17:39.408Z,37.18
2023-04-03T03:20:39.176Z,37.26
2023-04-03T03:26:30.169Z,37.25
2023-04-03T03:29:18.734Z,37.18
2023-04-03T03:31:48.748Z,37.27
2023-04-03T03:34:18.809Z,37.21
2023-04-03T03:36:48.889Z,37.27
2023-04-03T03:39:19.320Z,37.23
2023-04-03T03:41:58.130Z,37.23
2023-04-03T03:45:01.328Z,37.30
2023-04-03T03:51:30.449Z,37.33
2023-04-03T03:54:22.661Z,37.30
2023-04-03T03:56:53.033Z,37.27
2023-04-03T04:00:14.086Z,37.30
2023-04-03T04:02:55.222Z,37.38
2023-04-03T04:05:49.122Z,37.35
2023-04-03T04:15:09.433Z,37.33
2023-04-03T04:17:42.522Z,37.29
2023-04-03T04:20:55.533Z,37.33
2023-04-03T04:24:15.371Z,37.34
2023-04-03T04:27:05.975Z,37.34
2023-04-03T04:30:22.086Z,37.38
2023-04-03T04:32:58.003Z,37.38
2023-04-03T04:38:41.433Z,37.42
2023-04-03T04:45:09.941Z,37.39
2023-04-03T04:50:50.714Z,37.43
2023-04-03T04:54:07.722Z,37.45
2023-04-03T04:57:17.296Z,37.54
2023-04-03T04:59:48.909Z,37.52
2023-04-03T05:02:45.266Z,37.46
2023-04-03T05:11:01.227Z,37.55
2023-04-03T05:13:31.186Z,37.56
2023-04-03T05:16:01.216Z,37.59
2023-04-03T05:21:19.372Z,37.52
2023-04-03T05:27:13.518Z,37.54
2023-04-03T05:30:04.206Z,37.55
2023-04-03T05:36:06.316Z,37.66
2023-04-03T05:42:16.843Z,37.66
2023-04-03T05:44:56.222Z,37.70
2023-04-03T05:47:54.576Z,37.65
2023-04-03T05:53:49.638Z,37.69
2023-04-03T06:00:10.008Z,37.54
2023-04-03T06:03:00.539Z,37.68
2023-04-03T06:05:50.241Z,37.71
2023-04-03T06:11:45.887Z,37.80
2023-04-03T06:14:19.436Z,37.72
2023-04-03T06:16:48.253Z,37.73
2023-04-03T06:19:18.260Z,37.77
2023-04-03T06:21:50.752Z,37.81
2023-04-03T06:24:33.022Z,37.81
2023-04-03T06:27:29.873Z,37.78
2023-04-03T06:30:22.695Z,37.79
2023-04-03T06:33:18.607Z,37.79
2023-04-03T06:36:06.217Z,37.83
2023-04-03T06:38:53.491Z,37.79
2023-04-03T06:41:54.208Z,37.82
2023-04-03T06:54:19.839Z,37.80
2023-04-03T06:57:34.765Z,37.81
2023-04-03T07:03:30.703Z,37.90
2023-04-03T07:06:56.257Z,37.86
2023-04-03T07:09:26.661Z,37.96
2023-04-03T07:12:10.570Z,37.93
2023-04-03T07:15:21.356Z,37.99
2023-04-03T07:18:59.140Z,37.98
2023-04-03T07:21:33.068Z,37.95
2023-04-03T07:24:13.096Z,37.97
2023-04-03T07:27:21.297Z,38.08
2023-04-03T07:34:04.109Z,38.13
2023-04-03T07:36:47.337Z,38.17
2023-04-03T07:39:41.958Z,38.14
2023-04-03T07:42:37.077Z,38.16
2023-04-03T07:48:25.931Z,38.14
2023-04-03T07:57:32.526Z,38.25
2023-04-03T08:00:35.752Z,38.29
2023-04-03T08:03:25.656Z,38.24
2023-04-03T08:06:18.785Z,38.26
2023-04-03T08:12:31.224Z,38.32
2023-04-03T08:18:30.367Z,38.33
2023-04-03T08:21:13.807Z,38.35
2023-04-03T08:24:23.361Z,38.38
2023-04-03T08:27:06.024Z,38.45
2023-04-03T08:29:35.969Z,38.39
2023-04-03T08:32:06.072Z,38.39
2023-04-03T08:34:36.724Z,38.44
2023-04-03T08:37:06.923Z,38.41
2023-04-03T08:39:36.819Z,38.40
2023-04-03T08:42:35.284Z,38.41
2023-04-03T08:45:51.520Z,38.43
2023-04-03T08:48:42.765Z,38.50
2023-04-03T08:51:51.098Z,38.51
2023-04-03T08:55:04.081Z,38.52
2023-04-03T08:58:13.020Z,38.54
2023-04-03T09:00:51.524Z,38.51
2023-04-03T09:04:23.083Z,38.50
2023-04-03T09:06:40.399Z,38.55
2023-04-03T09:09:36.739Z,38.59
2023-04-03T09:12:49.779Z,38.59
2023-04-03T09:15:38.408Z,38.55
2023-04-03T09:18:29.516Z,38.55
2023-04-03T09:21:55.523Z,38.61
2023-04-03T09:25:21.310Z,38.67
2023-04-03T09:28:33.128Z,38.69
2023-04-03T09:31:46.858Z,38.59
2023-04-03T09:34:19.758Z,38.63
2023-04-03T09:36:52.996Z,38.70
2023-04-03T09:40:02.887Z,38.77
2023-04-03T09:43:09.931Z,38.82
2023-04-03T09:46:04.014Z,38.73
2023-04-03T09:49:07.465Z,38.71
2023-04-03T09:55:03.149Z,38.75
2023-04-03T09:57:53.693Z,38.77
2023-04-03T10:01:09.404Z,38.78
2023-04-03T10:06:41.412Z,38.73
2023-04-03T10:09:29.820Z,38.77
2023-04-03T10:12:37.226Z,38.74
2023-04-03T10:15:50.915Z,38.71
2023-04-03T10:18:56.586Z,38.73
2023-04-03T10:22:03.484Z,38.77
2023-04-03T10:24:57.473Z,38.73
2023-04-03T10:31:19.423Z,38.72
2023-04-03T10:34:29.007Z,38.74
2023-04-03T10:37:10.411Z,38.75
2023-04-03T10:40:08.961Z,38.68
2023-04-03T10:43:15.159Z,38.69
2023-04-03T10:46:21.090Z,38.74
2023-04-03T10:49:06.092Z,38.67
2023-04-03T10:52:15.074Z,38.72
2023-04-03T10:54:51.143Z,38.74
2023-04-03T10:57:57.952Z,38.72
2023-04-03T11:01:11.416Z,38.79
2023-04-03T11:04:09.310Z,38.78
2023-04-03T11:07:09.678Z,38.85
2023-04-03T11:16:21.143Z,38.93
2023-04-03T11:22:36.572Z,38.87
2023-04-03T11:25:15.128Z,38.91
2023-04-03T11:28:07.107Z,39.01
2023-04-03T11:40:05.764Z,38.96
2023-04-03T11:43:00.515Z,38.93
2023-04-03T11:46:25.959Z,38.92
2023-04-03T11:49:13.010Z,38.97
2023-04-03T11:52:09.435Z,38.95
2023-04-03T11:55:15.232Z,38.97
2023-04-03T11:58:22.405Z,38.93
2023-04-03T12:00:54.669Z,39.05
2023-04-03T12:10:33.881Z,38.99
2023-04-03T12:13:05.735Z,38.95
2023-04-03T12:16:01.218Z,38.92
2023-04-03T12:19:04.135Z,38.95
2023-04-03T12:22:11.562Z,38.93
2023-04-03T12:24:47.390Z,38.88
2023-04-03T12:27:46.323Z,38.93
2023-04-03T12:33:45.212Z,38.91
2023-04-03T12:42:08.476Z,38.87
2023-04-03T12:44:55.598Z,38.92
2023-04-03T12:47:28.173Z,38.89
2023-04-03T12:49:58.745Z,39.01
2023-04-03T12:52:34.032Z,39.00
2023-04-03T12:55:07.505Z,38.96
2023-04-03T12:58:01.182Z,39.02
2023-04-03T13:01:02.507Z,39.00
2023-04-03T13:07:11.451Z,38.80
2023-04-03T13:10:26.962Z,39.04
2023-04-03T13:13:15.549Z,39.07
2023-04-03T13:19:35.076Z,39.10
2023-04-03T13:22:12.887Z,39.04
2023-04-03T13:25:11.554Z,39.06
2023-04-03T13:31:12.968Z,39.04
2023-04-03T13:34:27.160Z,39.02
2023-04-03T13:37:12.732Z,39.00
2023-04-03T13:40:54.615Z,39.03
2023-04-03T13:43:29.863Z,38.98
2023-04-03T13:46:18.705Z,38.98
2023-04-03T13:49:07.729Z,39.00
2023-04-03T13:52:09.566Z,38.95
2023-04-03T13:55:18.841Z,38.99
2023-04-03T13:58:04.053Z,38.99
2023-04-03T14:01:09.827Z,39.00
2023-04-03T14:04:02.086Z,39.02
2023-04-03T14:10:26.378Z,39.02
2023-04-03T14:13:17.550Z,39.00
2023-04-03T14:19:00.731Z,38.97
2023-04-03T14:21:30.981Z,38.98
2023-04-03T14:24:00.981Z,38.99
2023-04-03T14:26:32.270Z,38.96
2023-04-03T14:32:11.477Z,38.97
2023-04-03T14:34:27.402Z,38.93
2023-04-03T14:37:05.008Z,38.95
2023-04-03T14:40:52.304Z,38.95
2023-04-03T14:42:24.903Z,38.89
2023-04-03T14:44:55.031Z,38.82
2023-04-03T14:47:31.824Z,38.80
2023-04-03T14:50:02.001Z,38.80
2023-04-03T14:52:33.944Z,38.77
2023-04-03T14:56:02.798Z,38.77
2023-04-03T14:58:41.846Z,38.76
2023-04-03T15:01:20.078Z,38.74
2023-04-03T15:04:53.644Z,38.71
2023-04-03T15:07:21.178Z,38.69
2023-04-03T15:10:28.240Z,38.67
2023-04-03T15:16:21.455Z,38.64
2023-04-03T15:22:45.231Z,38.66
2023-04-03T15:25:48.568Z,38.63
2023-04-03T15:28:39.049Z,38.40
2023-04-03T15:34:48.215Z,38.65
2023-04-03T15:40:54.161Z,38.67
2023-04-03T15:43:24.155Z,38.67
2023-04-03T15:52:47.330Z,38.66
2023-04-03T15:56:01.232Z,38.49
2023-04-03T15:59:03.159Z,38.67
2023-04-03T16:01:36.712Z,38.67
2023-04-03T16:05:12.207Z,38.69
2023-04-03T16:08:01.846Z,38.71
2023-04-03T16:13:57.913Z,38.68
2023-04-03T16:19:42.451Z,38.70
2023-04-03T16:28:34.025Z,38.73
2023-04-03T16:31:25.492Z,38.71
2023-04-03T16:47:11.665Z,38.77
2023-04-03T16:50:09.734Z,38.77
2023-04-03T16:58:55.082Z,38.81
2023-04-03T17:02:02.303Z,38.80
2023-04-03T17:04:57.794Z,38.81
2023-04-03T17:07:44.106Z,38.83
2023-04-03T17:10:42.206Z,38.80
2023-04-03T17:13:39.424Z,38.86
2023-04-03T17:16:37.236Z,38.81
2023-04-03T17:20:06.907Z,38.84
2023-04-03T17:25:31.284Z,38.85
2023-04-03T17:30:56.954Z,38.84
2023-04-03T17:33:27.303Z,38.86
2023-04-03T17:36:05.452Z,38.86
2023-04-03T17:39:00.948Z,38.85
2023-04-03T17:42:06.439Z,38.88
2023-04-03T17:44:38.161Z,38.87
2023-04-03T17:47:08.489Z,38.91
2023-04-03T17:50:20.237Z,38.92
2023-04-03T17:56:25.768Z,38.92
2023-04-03T17:58:56.164Z,38.93
2023-04-03T18:01:42.583Z,38.96
2023-04-03T18:04:38.077Z,38.97
2023-04-03T18:13:49.369Z,39.00
2023-04-03T18:19:47.495Z,39.04
2023-04-03T18:23:25.020Z,39.02
2023-04-03T18:29:16.588Z,39.08
2023-04-03T18:35:11.179Z,39.11
2023-04-03T18:38:34.347Z,39.13
2023-04-03T18:41:39.501Z,39.14
2023-04-03T18:44:12.146Z,39.15
2023-04-03T18:47:03.469Z,39.14
2023-04-03T18:49:50.156Z,39.18
2023-04-03T18:55:54.532Z,39.19
2023-04-03T19:02:08.917Z,39.23
2023-04-03T19:08:19.491Z,39.24
2023-04-03T19:10:58.702Z,39.25
2023-04-03T19:14:04.512Z,39.25
2023-04-03T19:20:27.795Z,39.31
2023-04-03T19:23:09.422Z,39.28
2023-04-03T19:26:25.837Z,39.31
2023-04-03T19:29:33.629Z,39.29
2023-04-03T19:33:08.702Z,39.33
2023-04-03T19:38:55.966Z,39.33
2023-04-03T19:41:48.666Z,39.37
2023-04-03T19:45:03.693Z,39.38
2023-04-03T19:48:09.022Z,39.47
2023-04-03T19:50:42.150Z,39.53
2023-04-03T19:53:14.766Z,39.54
2023-04-03T19:56:10.738Z,39.55
2023-04-03T20:02:42.380Z,39.56
2023-04-03T20:06:01.622Z,39.51
2023-04-03T20:08:54.672Z,39.51
2023-04-03T20:11:55.006Z,39.49
2023-04-03T20:14:32.350Z,39.55
2023-04-03T20:20:44.848Z,39.67
2023-04-03T20:23:20.920Z,39.62
2023-04-03T20:26:15.820Z,39.59
2023-04-03T20:29:29.058Z,39.56
2023-04-03T20:35:39.842Z,39.59
2023-04-03T20:38:29.423Z,39.73
2023-04-03T20:45:12.642Z,39.85
2023-04-03T20:53:20.730Z,39.64
2023-04-03T20:56:29.315Z,39.77
2023-04-03T20:59:32.764Z,39.90
2023-04-03T21:05:44.435Z,39.98
2023-04-03T21:08:50.461Z,39.89
2023-04-03T21:11:40.917Z,39.86
2023-04-03T21:14:47.526Z,39.79
2023-04-03T21:20:23.409Z,40.35
2023-04-03T21:23:18.646Z,40.40
2023-04-03T21:26:06.738Z,40.22
2023-04-03T21:28:36.665Z,40.18
2023-04-03T21:31:06.712Z,40.18
2023-04-03T21:33:37.018Z,40.29
2023-04-03T21:36:07.200Z,40.49
2023-04-03T21:42:05.217Z,40.52
2023-04-03T21:48:14.753Z,40.34
2023-04-03T21:50:59.672Z,40.32
2023-04-03T21:54:17.321Z,40.56
2023-04-03T21:57:26.195Z,40.71
2023-04-03T21:59:57.122Z,40.67
2023-04-03T22:06:00.948Z,40.45
2023-04-03T22:11:36.521Z,40.68
2023-04-03T22:14:36.512Z,40.81
2023-04-03T22:17:27.365Z,40.69
2023-04-03T22:20:23.824Z,40.73
2023-04-03T22:23:46.190Z,40.60
2023-04-03T22:26:30.756Z,40.62
2023-04-03T22:32:50.816Z,40.95
2023-04-03T22:35:40.050Z,40.78
2023-04-03T22:38:38.311Z,40.71
2023-04-03T22:41:30.969Z,40.64
2023-04-03T22:44:35.008Z,40.70
2023-04-03T22:47:15.423Z,40.84
2023-04-03T22:49:45.538Z,40.85
2023-04-03T22:52:15.719Z,40.51
2023-04-03T22:54:46.526Z,40.51
2023-04-03T22:57:16.951Z,40.55
2023-04-03T22:59:47.819Z,40.54
2023-04-03T23:02:45.766Z,40.45
2023-04-03T23:05:46.478Z,40.78
2023-04-03T23:08:35.501Z,40.74
2023-04-03T23:11:45.723Z,40.41
2023-04-03T23:15:02.154Z,40.15
2023-04-03T23:18:10.801Z,40.29
2023-04-03T23:20:41.097Z,40.37
2023-04-03T23:23:53.399Z,40.45
2023-04-03T23:26:35.667Z,40.65
2023-04-03T23:29:44.949Z,40.29
2023-04-03T23:32:36.374Z,40.01
2023-04-03T23:35:40.603Z,39.98
2023-04-03T23:38:35.959Z,40.11
2023-04-03T23:46:42.587Z,40.32
2023-04-03T23:49:39.317Z,40.04
2023-04-03T23:52:09.762Z,39.70
2023-04-03T23:54:40.084Z,39.60
2023-04-03T23:57:09.956Z,39.80
2023-04-03T23:59:45.633Z,39.92
